createdAt,value
2018-01-27T00:00:51.943Z,72.54
2018-01-27T00:03:20.935Z,72.62
2018-01-27T00:05:49.792Z,73.07
2018-01-27T00:08:18.661Z,72.83
2018-01-27T00:10:47.636Z,73.01
2018-01-27T00:13:16.541Z,72.77
2018-01-27T00:15:45.441Z,73.16
2018-01-27T00:18:17.857Z,73.57
2018-01-27T00:20:46.920Z,73.55
2018-01-27T00:23:15.805Z,73.49
2018-01-27T00:25:44.677Z,73.57
2018-01-27T00:28:13.499Z,73.08
2018-01-27T00:30:42.311Z,72.56
2018-01-27T00:33:11.156Z,72.70
2018-01-27T00:35:40.141Z,72.91
2018-01-27T00:38:08.973Z,72.64
2018-01-27T00:40:37.857Z,71.88
2018-01-27T00:43:09.465Z,72.87
2018-01-27T00:45:39.209Z,72.26
2018-01-27T00:48:08.016Z,72.07
2018-01-27T00:50:36.811Z,71.33
2018-01-27T00:53:05.619Z,72.46
2018-01-27T00:55:34.434Z,71.51
2018-01-27T00:58:03.314Z,70.48
2018-01-27T01:00:33.809Z,71.39
2018-01-27T01:03:02.648Z,71.38
2018-01-27T01:05:31.472Z,70.81
2018-01-27T01:08:02.157Z,70.12
2018-01-27T01:10:30.984Z,70.51
2018-01-27T01:12:59.777Z,70.99
2018-01-27T01:15:28.659Z,70.20
2018-01-27T01:17:57.557Z,69.69
2018-01-27T01:20:26.452Z,70.14
2018-01-27T01:22:56.137Z,72.50
2018-01-27T01:25:25.108Z,71.00
2018-01-27T01:27:54.051Z,70.37
2018-01-27T01:30:22.988Z,70.13
2018-01-27T01:32:51.806Z,71.07
2018-01-27T01:35:20.616Z,71.65
2018-01-27T01:37:49.617Z,71.66
2018-01-27T01:40:18.470Z,70.98
2018-01-27T01:43:04.728Z,72.38
2018-01-27T01:45:33.592Z,72.11
2018-01-27T01:48:02.446Z,71.92
2018-01-27T01:50:31.397Z,71.41
2018-01-27T01:53:00.264Z,72.14
2018-01-27T01:55:29.075Z,72.00
2018-01-27T01:57:58.765Z,72.60
2018-01-27T02:00:27.656Z,72.26
2018-01-27T02:02:56.535Z,72.28
2018-01-27T02:05:26.580Z,72.53
2018-01-27T02:07:55.504Z,73.33
2018-01-27T02:10:24.311Z,72.39
2018-01-27T02:12:54.107Z,72.35
2018-01-27T02:15:22.902Z,71.78
2018-01-27T02:17:51.778Z,72.27
2018-01-27T02:20:20.690Z,72.63
2018-01-27T02:22:49.559Z,73.18
2018-01-27T02:25:18.443Z,72.73
2018-01-27T02:27:47.366Z,72.20
2018-01-27T02:30:16.167Z,72.39
2018-01-27T02:32:46.095Z,71.98
2018-01-27T02:35:14.930Z,72.43
2018-01-27T02:37:43.748Z,71.10
2018-01-27T02:40:12.711Z,71.71
2018-01-27T02:42:48.190Z,72.06
2018-01-27T02:45:17.024Z,72.82
2018-01-27T02:47:46.217Z,71.78
2018-01-27T02:50:17.728Z,71.72
2018-01-27T02:52:49.284Z,72.56
2018-01-27T02:55:18.378Z,71.96
2018-01-27T02:57:47.292Z,71.21
2018-01-27T03:00:17.331Z,71.11
2018-01-27T03:02:46.486Z,71.87
2018-01-27T03:05:15.475Z,70.98
2018-01-27T03:07:44.581Z,70.82
2018-01-27T03:10:13.916Z,71.18
2018-01-27T03:12:42.873Z,71.88
2018-01-27T03:15:11.862Z,73.72
2018-01-27T03:17:41.632Z,76.19
2018-01-27T03:20:10.877Z,75.92
2018-01-27T03:22:40.837Z,76.03
2018-01-27T03:25:11.575Z,75.26
2018-01-27T03:27:45.415Z,74.54
2018-01-27T03:30:15.182Z,74.74
2018-01-27T03:32:44.236Z,75.50
2018-01-27T03:35:13.340Z,74.70
2018-01-27T03:37:46.126Z,74.55
2018-01-27T03:40:15.235Z,74.58
2018-01-27T03:42:44.318Z,74.07
2018-01-27T03:45:13.414Z,73.62
2018-01-27T03:47:44.348Z,73.72
2018-01-27T03:50:13.497Z,74.83
2018-01-27T03:52:43.375Z,74.44
2018-01-27T03:55:12.480Z,74.07
2018-01-27T03:57:41.469Z,74.20
2018-01-27T04:00:12.163Z,74.55
2018-01-27T04:02:41.201Z,73.58
2018-01-27T04:05:10.072Z,72.50
2018-01-27T04:10:13.395Z,73.90
2018-01-27T04:12:44.378Z,73.31
2018-01-27T04:15:15.285Z,72.13
2018-01-27T04:17:44.099Z,71.86
2018-01-27T04:20:12.993Z,73.11
2018-01-27T04:22:41.824Z,72.25
2018-01-27T04:25:10.916Z,70.99
2018-01-27T04:27:39.713Z,70.82
2018-01-27T04:30:10.213Z,71.63
2018-01-27T04:32:38.997Z,71.65
2018-01-27T04:35:07.790Z,71.61
2018-01-27T04:37:39.438Z,71.87
2018-01-27T04:40:08.229Z,73.04
2018-01-27T04:42:37.047Z,73.07
2018-01-27T04:45:11.445Z,72.49
2018-01-27T04:47:43.054Z,72.47
2018-01-27T04:50:16.770Z,72.86
2018-01-27T04:52:45.553Z,72.31
2018-01-27T04:55:14.338Z,72.29
2018-01-27T04:57:45.195Z,72.92
2018-01-27T05:00:13.986Z,72.60
2018-01-27T05:02:42.890Z,72.33
2018-01-27T05:05:12.651Z,72.35
2018-01-27T05:07:41.547Z,72.73
2018-01-27T05:10:10.411Z,71.84
2018-01-27T05:12:39.350Z,72.05
2018-01-27T05:15:08.151Z,72.31
2018-01-27T05:17:36.939Z,72.65
2018-01-27T05:20:06.678Z,72.28
2018-01-27T05:22:35.454Z,72.76
2018-01-27T05:25:06.321Z,73.22
2018-01-27T05:27:37.304Z,73.47
2018-01-27T05:30:07.180Z,73.24
2018-01-27T05:32:36.101Z,72.26
2018-01-27T05:35:07.638Z,72.40
2018-01-27T05:37:36.765Z,73.65
2018-01-27T05:40:06.841Z,73.13
2018-01-27T05:42:35.692Z,72.41
2018-01-27T05:45:08.188Z,72.70
2018-01-27T05:47:38.127Z,73.36
2018-01-27T05:50:06.994Z,72.76
2018-01-27T05:52:36.030Z,71.57
2018-01-27T05:55:08.478Z,72.71
2018-01-27T05:57:37.388Z,72.68
2018-01-27T06:00:06.367Z,72.24
2018-01-27T06:02:36.392Z,72.01
2018-01-27T06:05:05.413Z,73.88
2018-01-27T06:07:34.449Z,73.71
2018-01-27T06:10:05.562Z,72.97
2018-01-27T06:12:35.433Z,72.08
2018-01-27T06:15:04.698Z,73.75
2018-01-27T06:17:35.353Z,74.00
2018-01-27T06:20:04.358Z,71.03
2018-01-27T06:22:33.178Z,71.06
2018-01-27T06:25:03.169Z,71.06
2018-01-27T06:27:32.268Z,70.50
2018-01-27T06:30:01.256Z,70.57
2018-01-27T06:32:30.426Z,70.60
2018-01-27T06:34:59.273Z,69.29
2018-01-27T06:37:30.386Z,71.01
2018-01-27T06:40:00.381Z,72.03
2018-01-27T06:42:29.497Z,70.68
2018-01-27T06:44:58.596Z,69.64
2018-01-27T06:47:27.911Z,69.20
2018-01-27T06:49:56.894Z,69.73
2018-01-27T06:52:25.955Z,69.25
2018-01-27T06:54:54.880Z,68.50
2018-01-27T06:57:24.820Z,68.62
2018-01-27T06:59:53.686Z,68.47
2018-01-27T07:02:26.869Z,67.90
2018-01-27T07:04:56.080Z,67.67
2018-01-27T07:07:25.173Z,66.72
2018-01-27T07:09:54.990Z,65.51
2018-01-27T07:12:24.855Z,65.01
2018-01-27T07:14:54.809Z,64.29
2018-01-27T07:17:24.702Z,64.22
2018-01-27T07:19:53.754Z,63.23
2018-01-27T07:22:23.080Z,61.82
2018-01-27T07:24:52.438Z,61.68
2018-01-27T07:27:21.624Z,60.78
2018-01-27T07:29:50.589Z,60.30
2018-01-27T07:32:21.139Z,61.61
2018-01-27T07:34:50.144Z,61.55
2018-01-27T07:37:19.861Z,60.33
2018-01-27T07:39:51.478Z,59.82
2018-01-27T07:42:22.548Z,60.61
2018-01-27T07:44:51.648Z,59.92
2018-01-27T07:47:21.589Z,59.94
2018-01-27T07:49:52.199Z,59.98
2018-01-27T07:52:22.073Z,59.50
2018-01-27T07:54:51.137Z,59.63
2018-01-27T07:57:20.107Z,58.99
2018-01-27T07:59:49.091Z,58.89
2018-01-27T08:02:18.899Z,59.73
2018-01-27T08:04:48.888Z,59.63
2018-01-27T08:07:17.946Z,59.50
2018-01-27T08:09:47.872Z,59.81
2018-01-27T08:12:17.954Z,60.24
2018-01-27T08:14:47.054Z,60.21
2018-01-27T08:17:16.136Z,59.87
2018-01-27T08:19:45.252Z,59.52
2018-01-27T08:22:14.386Z,59.37
2018-01-27T08:24:43.721Z,58.18
2018-01-27T08:27:12.782Z,60.73
2018-01-27T08:29:41.760Z,58.53
2018-01-27T08:32:11.875Z,57.96
2018-01-27T08:34:41.150Z,58.10
2018-01-27T08:37:10.352Z,57.86
2018-01-27T08:39:40.299Z,58.01
2018-01-27T08:42:09.243Z,57.26
2018-01-27T08:44:39.267Z,58.63
2018-01-27T08:47:09.540Z,59.73
2018-01-27T08:49:38.593Z,58.74
2018-01-27T08:52:07.689Z,58.16
2018-01-27T08:54:36.814Z,58.35
2018-01-27T08:57:05.678Z,57.62
2018-01-27T08:59:35.638Z,57.82
2018-01-27T09:02:07.309Z,58.05
2018-01-27T09:04:36.373Z,58.18
2018-01-27T09:07:11.790Z,57.46
2018-01-27T09:09:40.824Z,58.53
2018-01-27T09:12:09.702Z,58.24
2018-01-27T09:14:40.003Z,57.48
2018-01-27T09:17:08.889Z,57.71
2018-01-27T09:19:38.088Z,57.89
2018-01-27T09:22:07.297Z,58.06
2018-01-27T09:24:37.202Z,58.40
2018-01-27T09:27:06.217Z,59.00
2018-01-27T09:29:39.297Z,58.41
2018-01-27T09:32:10.832Z,58.33
2018-01-27T09:34:42.441Z,58.87
2018-01-27T09:37:11.393Z,58.51
2018-01-27T09:39:40.511Z,58.46
2018-01-27T09:42:10.252Z,58.39
2018-01-27T09:44:39.106Z,58.80
2018-01-27T09:47:07.907Z,58.19
2018-01-27T09:49:37.805Z,57.91
2018-01-27T09:52:06.601Z,58.38
2018-01-27T09:54:35.397Z,59.12
2018-01-27T09:57:05.155Z,59.35
2018-01-27T09:59:34.007Z,59.56
2018-01-27T10:02:02.826Z,59.48
2018-01-27T10:04:33.334Z,59.37
2018-01-27T10:07:02.160Z,59.73
2018-01-27T10:09:30.966Z,59.60
2018-01-27T10:12:00.666Z,60.07
2018-01-27T10:14:30.624Z,59.88
2018-01-27T10:16:59.462Z,59.65
2018-01-27T10:19:29.059Z,59.02
2018-01-27T10:21:58.161Z,58.92
2018-01-27T10:24:26.968Z,58.95
2018-01-27T10:26:55.829Z,59.83
2018-01-27T10:29:24.668Z,59.23
2018-01-27T10:31:53.473Z,59.29
2018-01-27T10:34:22.316Z,60.45
2018-01-27T10:36:51.094Z,60.88
2018-01-27T10:39:19.907Z,60.51
2018-01-27T10:41:52.110Z,60.19
2018-01-27T10:44:20.935Z,59.53
2018-01-27T10:46:49.774Z,59.86
2018-01-27T10:49:19.563Z,60.22
2018-01-27T10:51:48.432Z,59.97
2018-01-27T10:54:17.219Z,60.19
2018-01-27T10:56:46.038Z,60.60
2018-01-27T10:59:14.848Z,61.19
2018-01-27T11:01:43.654Z,60.58
2018-01-27T11:04:13.326Z,61.13
2018-01-27T11:06:43.437Z,60.96
2018-01-27T11:09:12.243Z,61.87
2018-01-27T11:11:43.606Z,61.58
2018-01-27T11:14:12.402Z,61.20
2018-01-27T11:16:43.072Z,61.31
2018-01-27T11:19:11.902Z,62.06
2018-01-27T11:21:40.696Z,62.55
2018-01-27T11:24:09.491Z,62.61
2018-01-27T11:26:38.407Z,62.59
2018-01-27T11:29:07.198Z,61.89
2018-01-27T11:31:36.115Z,61.16
2018-01-27T11:34:05.016Z,61.35
2018-01-27T11:36:33.816Z,60.94
2018-01-27T11:39:02.646Z,61.32
2018-01-27T11:41:34.155Z,60.67
2018-01-27T11:44:02.975Z,61.20
2018-01-27T11:46:31.810Z,60.87
2018-01-27T11:49:04.296Z,61.22
2018-01-27T11:51:33.219Z,61.87
2018-01-27T11:54:02.021Z,62.43
2018-01-27T11:56:32.116Z,61.12
2018-01-27T11:59:00.941Z,61.16
2018-01-27T12:01:29.849Z,61.67
2018-01-27T12:03:59.618Z,61.27
2018-01-27T12:06:28.468Z,61.06
2018-01-27T12:08:57.274Z,61.13
2018-01-27T12:11:26.124Z,60.66
2018-01-27T12:13:55.004Z,60.51
2018-01-27T12:16:23.915Z,61.59
2018-01-27T12:18:54.384Z,61.86
2018-01-27T12:21:23.217Z,62.40
2018-01-27T12:23:52.042Z,62.27
2018-01-27T12:26:20.868Z,62.12
2018-01-27T12:28:49.709Z,62.08
2018-01-27T12:31:18.597Z,62.03
2018-01-27T12:33:47.442Z,62.53
2018-01-27T12:36:16.228Z,61.93
2018-01-27T12:38:45.063Z,61.93
2018-01-27T12:41:14.340Z,61.71
2018-01-27T12:43:43.254Z,61.56
2018-01-27T12:46:12.053Z,61.64
2018-01-27T12:48:40.896Z,61.80
2018-01-27T12:51:09.715Z,61.92
2018-01-27T12:53:38.552Z,61.28
2018-01-27T12:56:08.271Z,60.91
2018-01-27T12:58:37.086Z,61.16
2018-01-27T13:01:06.007Z,60.83
2018-01-27T13:03:36.945Z,61.53
2018-01-27T13:06:05.802Z,62.04
2018-01-27T13:08:34.600Z,61.57
2018-01-27T13:11:07.230Z,62.43
2018-01-27T13:13:36.037Z,62.83
2018-01-27T13:16:05.872Z,62.44
2018-01-27T13:18:36.324Z,61.67
2018-01-27T13:21:05.145Z,62.06
2018-01-27T13:23:33.937Z,62.58
2018-01-27T13:26:04.536Z,62.86
2018-01-27T13:28:33.354Z,62.21
2018-01-27T13:31:02.231Z,62.30
2018-01-27T13:33:31.128Z,63.28
2018-01-27T13:35:59.914Z,63.91
2018-01-27T13:38:28.787Z,63.71
2018-01-27T13:40:57.783Z,62.66
2018-01-27T13:43:26.594Z,63.20
2018-01-27T13:45:55.383Z,63.18
2018-01-27T13:48:28.950Z,63.29
2018-01-27T13:50:57.779Z,62.65
2018-01-27T13:53:32.290Z,64.03
2018-01-27T13:56:01.124Z,63.87
2018-01-27T13:58:30.058Z,64.85
2018-01-27T14:00:58.962Z,64.31
2018-01-27T14:03:27.772Z,65.25
2018-01-27T14:05:56.567Z,65.09
2018-01-27T14:08:25.466Z,65.46
2018-01-27T14:10:54.287Z,65.10
2018-01-27T14:13:23.157Z,64.93
2018-01-27T14:15:52.071Z,65.81
2018-01-27T14:18:20.972Z,67.28
2018-01-27T14:20:49.786Z,66.87
2018-01-27T14:23:18.707Z,66.90
2018-01-27T14:25:47.542Z,67.40
2018-01-27T14:28:16.318Z,67.41
2018-01-27T14:30:45.262Z,67.38
2018-01-27T14:33:14.128Z,68.08
2018-01-27T14:35:42.962Z,68.78
2018-01-27T14:38:11.821Z,69.33
2018-01-27T14:40:40.580Z,70.00
2018-01-27T14:43:09.479Z,70.14
2018-01-27T14:45:38.680Z,70.31
2018-01-27T14:48:07.565Z,70.51
2018-01-27T14:50:36.440Z,71.00
2018-01-27T14:53:06.305Z,71.76
2018-01-27T14:55:35.200Z,72.27
2018-01-27T14:58:04.098Z,72.39
2018-01-27T15:00:33.008Z,73.04
2018-01-27T15:03:01.852Z,73.26
2018-01-27T15:05:30.668Z,73.51
2018-01-27T15:08:02.979Z,73.72
2018-01-27T15:10:31.835Z,73.47
2018-01-27T15:13:00.668Z,73.39
2018-01-27T15:15:29.529Z,73.60
2018-01-27T15:17:58.339Z,73.86
2018-01-27T15:20:27.247Z,73.90
2018-01-27T15:22:56.962Z,73.94
2018-01-27T15:25:25.849Z,74.22
2018-01-27T15:27:54.696Z,74.61
2018-01-27T15:30:24.673Z,75.01
2018-01-27T15:32:53.444Z,74.74
2018-01-27T15:35:22.268Z,74.21
2018-01-27T15:37:52.248Z,75.02
2018-01-27T15:40:21.108Z,75.54
2018-01-27T15:42:49.928Z,75.38
2018-01-27T15:45:18.941Z,75.21
2018-01-27T15:47:47.836Z,75.33
2018-01-27T15:50:16.622Z,75.49
2018-01-27T15:52:45.543Z,75.15
2018-01-27T15:55:14.388Z,75.07
2018-01-27T15:57:43.235Z,75.38
2018-01-27T16:00:12.459Z,75.94
2018-01-27T16:02:41.417Z,76.10
2018-01-27T16:05:11.317Z,76.28
2018-01-27T16:07:43.409Z,76.23
2018-01-27T16:10:13.516Z,77.03
2018-01-27T16:12:43.437Z,77.27
2018-01-27T16:15:13.352Z,78.19
2018-01-27T16:17:42.506Z,78.82
2018-01-27T16:20:11.502Z,80.12
2018-01-27T16:22:41.474Z,80.48
2018-01-27T16:25:10.857Z,80.34
2018-01-27T16:27:39.956Z,79.72
2018-01-27T16:30:09.184Z,79.41
2018-01-27T16:32:38.240Z,79.15
2018-01-27T16:35:07.270Z,79.07
2018-01-27T16:37:38.070Z,79.21
2018-01-27T16:40:07.211Z,79.31
2018-01-27T16:42:36.168Z,79.89
2018-01-27T16:45:07.960Z,79.98
2018-01-27T16:47:37.123Z,79.57
2018-01-27T16:50:06.793Z,79.41
2018-01-27T16:52:38.276Z,78.65
2018-01-27T16:55:07.196Z,79.04
2018-01-27T16:57:36.258Z,79.41
2018-01-27T17:00:06.835Z,80.47
2018-01-27T17:02:35.713Z,80.50
2018-01-27T17:05:04.547Z,80.76
2018-01-27T17:07:33.533Z,81.10
2018-01-27T17:10:02.430Z,80.89
2018-01-27T17:12:31.548Z,81.11
2018-01-27T17:15:01.292Z,81.38
2018-01-27T17:17:30.113Z,81.07
2018-01-27T17:19:58.915Z,80.62
2018-01-27T17:22:28.767Z,80.57
2018-01-27T17:24:57.571Z,80.74
2018-01-27T17:27:26.412Z,80.58
2018-01-27T17:29:55.412Z,80.49
2018-01-27T17:32:24.391Z,80.78
2018-01-27T17:34:53.591Z,80.77
2018-01-27T17:37:23.688Z,80.36
2018-01-27T17:39:52.571Z,81.14
2018-01-27T17:42:21.457Z,82.04
2018-01-27T17:44:50.537Z,82.20
2018-01-27T17:47:19.411Z,81.89
2018-01-27T17:49:48.237Z,81.51
2018-01-27T17:52:17.235Z,81.80
2018-01-27T17:54:46.290Z,81.55
2018-01-27T17:57:15.212Z,81.47
2018-01-27T17:59:44.062Z,81.60
2018-01-27T18:02:12.941Z,81.35
2018-01-27T18:04:41.834Z,81.91
2018-01-27T18:07:10.712Z,82.07
2018-01-27T18:09:39.601Z,82.22
2018-01-27T18:12:08.510Z,81.72
2018-01-27T18:14:38.969Z,81.57
2018-01-27T18:17:07.896Z,81.96
2018-01-27T18:19:36.834Z,82.44
2018-01-27T18:22:06.320Z,82.33
2018-01-27T18:24:35.153Z,82.53
2018-01-27T18:27:03.989Z,83.01
2018-01-27T18:29:33.048Z,83.35
2018-01-27T18:32:01.919Z,83.38
2018-01-27T18:34:30.769Z,83.80
2018-01-27T18:36:59.708Z,84.29
2018-01-27T18:39:28.635Z,85.14
2018-01-27T18:41:57.423Z,84.53
2018-01-27T18:44:26.340Z,84.11
2018-01-27T18:46:55.160Z,84.26
2018-01-27T18:49:24.096Z,84.43
2018-01-27T18:51:55.598Z,84.43
2018-01-27T18:54:24.701Z,84.39
2018-01-27T18:56:53.706Z,84.45
2018-01-27T18:59:24.360Z,84.42
2018-01-27T19:01:53.204Z,84.33
2018-01-27T19:04:22.112Z,84.28
2018-01-27T19:06:51.193Z,84.54
2018-01-27T19:09:20.030Z,84.49
2018-01-27T19:11:48.848Z,84.90
2018-01-27T19:14:20.372Z,84.92
2018-01-27T19:16:49.335Z,85.34
2018-01-27T19:19:18.366Z,85.74
2018-01-27T19:21:48.587Z,85.95
2018-01-27T19:24:18.096Z,86.26
2018-01-27T19:26:49.550Z,86.29
2018-01-27T19:29:19.699Z,86.15
2018-01-27T19:31:49.520Z,85.75
2018-01-27T19:34:18.741Z,85.79
2018-01-27T19:36:48.051Z,85.71
2018-01-27T19:39:17.288Z,85.63
2018-01-27T19:41:47.186Z,85.41
2018-01-27T19:44:17.002Z,85.46
2018-01-27T19:46:49.358Z,86.02
2018-01-27T19:49:21.206Z,85.89
2018-01-27T19:51:53.968Z,85.57
2018-01-27T19:54:25.530Z,85.47
2018-01-27T19:56:58.230Z,85.83
2018-01-27T19:59:29.980Z,85.97
2018-01-27T20:01:59.819Z,86.32
2018-01-27T20:04:29.772Z,86.77
2018-01-27T20:06:58.914Z,86.59
2018-01-27T20:09:28.400Z,86.47
2018-01-27T20:11:57.393Z,86.29
2018-01-27T20:14:26.223Z,86.25
2018-01-27T20:16:55.931Z,86.13
2018-01-27T20:19:24.801Z,86.31
2018-01-27T20:21:53.986Z,86.17
2018-01-27T20:24:23.767Z,86.04
2018-01-27T20:26:52.818Z,85.71
2018-01-27T20:29:21.882Z,85.75
2018-01-27T20:31:55.125Z,85.54
2018-01-27T20:34:24.632Z,85.78
2018-01-27T20:36:54.721Z,86.29
2018-01-27T20:39:24.541Z,86.27
2018-01-27T20:41:53.724Z,86.20
2018-01-27T20:44:23.142Z,86.11
2018-01-27T20:46:54.352Z,86.09
2018-01-27T20:49:23.613Z,85.67
2018-01-27T20:51:57.843Z,85.32
2018-01-27T20:54:27.446Z,84.91
2018-01-27T20:56:59.008Z,84.92
2018-01-27T20:59:30.030Z,84.48
2018-01-27T21:02:03.250Z,84.66
2018-01-27T21:04:32.215Z,84.83
2018-01-27T21:07:01.158Z,84.91
2018-01-27T21:09:33.469Z,85.18
2018-01-27T21:12:03.931Z,85.22
2018-01-27T21:14:33.018Z,85.10
2018-01-27T21:17:03.165Z,84.93
2018-01-27T21:19:32.656Z,84.85
2018-01-27T21:22:01.850Z,84.84
2018-01-27T21:24:30.825Z,84.74
2018-01-27T21:27:01.471Z,84.50
2018-01-27T21:29:30.546Z,84.87
2018-01-27T21:32:00.422Z,85.29
2018-01-27T21:34:29.392Z,85.61
2018-01-27T21:36:58.374Z,85.72
2018-01-27T21:39:27.604Z,86.19
2018-01-27T21:41:58.400Z,86.13
2018-01-27T21:44:27.448Z,86.07
2018-01-27T21:46:56.574Z,86.01
2018-01-27T21:49:26.585Z,86.02
2018-01-27T21:51:55.585Z,85.98
2018-01-27T21:54:24.577Z,86.11
2018-01-27T21:56:53.634Z,86.28
2018-01-27T21:59:22.592Z,86.17
2018-01-27T22:01:52.442Z,86.15
2018-01-27T22:04:21.443Z,86.15
2018-01-27T22:06:50.992Z,86.19
2018-01-27T22:09:21.628Z,86.15
2018-01-27T22:11:50.666Z,85.85
2018-01-27T22:14:19.748Z,85.77
2018-01-27T22:16:49.651Z,85.91
2018-01-27T22:19:18.577Z,86.09
2018-01-27T22:21:47.635Z,86.40
2018-01-27T22:24:16.990Z,86.52
2018-01-27T22:26:45.961Z,86.61
2018-01-27T22:29:15.754Z,86.52
2018-01-27T22:31:44.975Z,86.62
2018-01-27T22:34:15.430Z,86.96
2018-01-27T22:36:45.856Z,87.18
2018-01-27T22:39:15.031Z,87.53
2018-01-27T22:41:43.940Z,87.60
2018-01-27T22:44:13.115Z,87.54
2018-01-27T22:46:42.276Z,87.61
2018-01-27T22:49:11.314Z,87.87
2018-01-27T22:51:40.651Z,88.01
2018-01-27T22:54:10.395Z,88.03
2018-01-27T22:56:39.460Z,87.99
2018-01-27T22:59:08.764Z,88.11
2018-01-27T23:01:39.784Z,88.29
2018-01-27T23:04:08.999Z,87.96
2018-01-27T23:06:40.659Z,88.10
2018-01-27T23:09:09.580Z,88.13
2018-01-27T23:11:38.564Z,88.02
2018-01-27T23:14:09.479Z,88.24
2018-01-27T23:16:38.709Z,88.26
2018-01-27T23:19:07.718Z,88.27
2018-01-27T23:21:36.930Z,88.55
2018-01-27T23:24:06.068Z,88.46
2018-01-27T23:26:35.065Z,88.61
2018-01-27T23:29:05.565Z,88.62
2018-01-27T23:31:35.048Z,88.45
2018-01-27T23:34:03.917Z,88.62
2018-01-27T23:36:32.818Z,88.67
2018-01-27T23:39:02.204Z,88.61
2018-01-27T23:41:31.164Z,88.32
2018-01-27T23:44:00.172Z,88.04
2018-01-27T23:46:29.358Z,87.62
2018-01-27T23:48:59.486Z,87.63
2018-01-27T23:51:28.793Z,87.83
2018-01-27T23:53:58.297Z,88.12
2018-01-27T23:56:27.212Z,87.83
2018-01-27T23:58:56.400Z,87.36
